Skip Navigation LinksHome page > Weather > Current weather Skip Navigation Links

Current Weather

Bom Jesus Da Lapa, Brazil

For information only: do not use for flight planning or navigation.
Latest weather
Observation time Wednesday, July 23, 2014 8:00 AM BRT
Local time Wednesday, July 23, 2014 8:54 AM BRT
Flight conditions Visual Meteorological Conditions
Winds
Wind direction South (190°)
Wind speed 6 mph
Visibility 6.2 mi.
Sky condition
Ceiling unlimited
Sky clear
Temperature 70°F
Dewpoint 61°F
Altimeter 30.18 in.Hg
Derived measurements
Relative humidity 73%
Density altitude 657 ft.
Remarks
Ceiling and visibility OK.
METAR SBLP 231100Z 19005KT CAVOK 21/16 Q1022

Settings

Location code

InnerDrive.Weather 4.0.5294.0 Release CLR 4.0.30319.34014
Copyright ©2014 Inner Drive Technology. All rights reserved. Portions Copyright ©1986-2014 David Braverman.

Find weather

Site navigation


Skip Navigation Links

Place info

Page info

PayPal - The safer, easier way to pay online!

Return home.

Copyright ©2014 Inner Drive Technology. Purveyors of fine, hand-crafted computer software. Page printed 2014-07-23T11:54:14 UTC.